createdAt,value
2019-03-30T00:01:16.080Z,28.10
2019-03-30T00:03:44.309Z,30.07
2019-03-30T00:06:12.646Z,31.63
2019-03-30T00:08:40.982Z,27.87
2019-03-30T00:11:09.189Z,29.60
2019-03-30T00:13:37.552Z,31.40
2019-03-30T00:16:07.309Z,32.57
2019-03-30T00:18:35.502Z,32.03
2019-03-30T00:21:03.705Z,33.57
2019-03-30T00:23:32.010Z,33.00
2019-03-30T00:26:00.328Z,37.47
2019-03-30T00:28:28.701Z,33.60
2019-03-30T00:30:56.951Z,36.60
2019-03-30T00:33:25.163Z,37.37
2019-03-30T00:35:53.599Z,35.13
2019-03-30T00:38:21.729Z,34.47
2019-03-30T00:40:50.084Z,36.20
2019-03-30T00:43:18.373Z,33.53
2019-03-30T00:45:46.701Z,35.53
2019-03-30T00:48:14.979Z,33.47
2019-03-30T00:50:43.258Z,34.23
2019-03-30T00:53:13.764Z,33.40
2019-03-30T00:55:42.160Z,36.10
2019-03-30T00:58:10.340Z,33.17
2019-03-30T01:00:45.749Z,35.97
2019-03-30T01:03:14.084Z,33.13
2019-03-30T01:05:42.399Z,34.30
2019-03-30T01:08:10.924Z,32.10
2019-03-30T01:10:39.210Z,32.83
2019-03-30T01:13:07.785Z,31.97
2019-03-30T01:15:39.917Z,31.80
2019-03-30T01:18:08.103Z,35.00
2019-03-30T01:20:36.578Z,31.20
2019-03-30T01:23:04.802Z,31.53
2019-03-30T01:25:32.998Z,31.50
2019-03-30T01:28:01.403Z,33.40
2019-03-30T01:30:29.627Z,31.27
2019-03-30T01:32:57.916Z,30.77
2019-03-30T01:35:26.265Z,30.33
2019-03-30T01:37:54.642Z,31.87
2019-03-30T01:40:23.238Z,28.87
2019-03-30T01:42:51.476Z,32.20
2019-03-30T01:45:19.652Z,28.07
2019-03-30T01:47:47.765Z,32.20
2019-03-30T01:50:17.953Z,30.77
2019-03-30T01:52:46.334Z,28.73
2019-03-30T01:55:14.670Z,30.17
2019-03-30T01:57:42.840Z,29.63
2019-03-30T02:00:11.466Z,28.17
2019-03-30T02:02:39.876Z,31.93
2019-03-30T02:05:08.363Z,28.63
2019-03-30T02:07:36.895Z,27.83
2019-03-30T02:10:05.723Z,29.40
2019-03-30T02:12:35.360Z,25.87
2019-03-30T02:15:05.160Z,28.13
2019-03-30T02:17:33.643Z,28.20
2019-03-30T02:20:02.263Z,27.30
2019-03-30T02:22:30.463Z,28.77
2019-03-30T02:24:58.972Z,27.97
2019-03-30T02:27:27.330Z,27.37
2019-03-30T02:29:55.536Z,27.10
2019-03-30T02:32:24.052Z,27.50
2019-03-30T02:34:52.241Z,26.63
2019-03-30T02:37:20.562Z,27.67
2019-03-30T02:39:48.794Z,28.90
2019-03-30T02:42:17.120Z,26.37
2019-03-30T02:44:45.337Z,27.07
2019-03-30T02:47:13.717Z,26.57
2019-03-30T02:49:42.231Z,24.67
2019-03-30T02:52:10.430Z,25.77
2019-03-30T02:54:38.665Z,29.37
2019-03-30T02:57:06.904Z,27.83
2019-03-30T02:59:35.086Z,27.07
2019-03-30T03:02:05.738Z,25.13
2019-03-30T03:04:34.443Z,27.40
2019-03-30T03:07:02.744Z,26.37
2019-03-30T03:09:30.953Z,22.90
2019-03-30T03:11:59.697Z,26.13
2019-03-30T03:14:27.940Z,25.23
2019-03-30T03:16:56.092Z,26.27
2019-03-30T03:19:24.665Z,27.87
2019-03-30T03:21:52.976Z,25.53
2019-03-30T03:24:21.183Z,25.63
2019-03-30T03:26:49.481Z,24.47
2019-03-30T03:29:17.890Z,24.70
2019-03-30T03:31:46.311Z,26.00
2019-03-30T03:34:14.557Z,26.00
2019-03-30T03:36:42.715Z,26.17
2019-03-30T03:39:10.985Z,26.67
2019-03-30T03:41:39.189Z,25.83
2019-03-30T03:44:07.517Z,26.47
2019-03-30T03:46:35.843Z,25.13
2019-03-30T03:49:05.088Z,26.40
2019-03-30T03:51:33.328Z,25.17
2019-03-30T03:54:01.679Z,28.37
2019-03-30T03:56:31.618Z,26.07
2019-03-30T03:59:01.896Z,25.50
2019-03-30T04:01:33.140Z,26.27
2019-03-30T04:04:04.840Z,27.90
2019-03-30T04:06:33.041Z,29.47
2019-03-30T04:09:04.718Z,23.57
2019-03-30T04:11:34.587Z,27.60
2019-03-30T04:14:03.781Z,26.07
2019-03-30T04:16:32.019Z,26.80
2019-03-30T04:19:02.475Z,26.20
2019-03-30T04:21:43.849Z,26.87
2019-03-30T04:24:00.843Z,27.23
2019-03-30T04:26:29.541Z,27.23
2019-03-30T04:28:57.769Z,26.17
2019-03-30T04:31:26.061Z,26.00
2019-03-30T04:33:54.363Z,25.00
2019-03-30T04:36:22.599Z,25.97
2019-03-30T04:38:50.915Z,24.83
2019-03-30T04:41:19.116Z,26.33
2019-03-30T04:43:47.421Z,27.33
2019-03-30T04:46:15.632Z,24.80
2019-03-30T04:48:44.735Z,28.50
2019-03-30T04:51:17.173Z,24.47
2019-03-30T04:53:45.493Z,27.03
2019-03-30T04:56:13.763Z,23.63
2019-03-30T04:58:41.943Z,25.43
2019-03-30T05:01:10.195Z,25.37
2019-03-30T05:03:38.555Z,27.80
2019-03-30T05:06:06.835Z,24.87
2019-03-30T05:08:36.317Z,24.77
2019-03-30T05:11:04.503Z,28.33
2019-03-30T05:13:32.737Z,26.10
2019-03-30T05:16:01.006Z,24.23
2019-03-30T05:18:29.309Z,26.80
2019-03-30T05:20:57.888Z,24.30
2019-03-30T05:23:26.346Z,25.60
2019-03-30T05:25:55.932Z,26.63
2019-03-30T05:28:24.417Z,27.37
2019-03-30T05:30:52.933Z,25.10
2019-03-30T05:33:21.066Z,25.73
2019-03-30T05:35:49.261Z,25.77
2019-03-30T05:38:17.610Z,25.43
2019-03-30T05:40:46.103Z,23.53
2019-03-30T05:43:14.355Z,25.13
2019-03-30T05:45:42.620Z,26.07
2019-03-30T05:48:10.876Z,23.63
2019-03-30T05:50:39.203Z,25.70
2019-03-30T05:53:07.510Z,24.27
2019-03-30T05:55:35.933Z,22.77
2019-03-30T05:58:04.160Z,24.27
2019-03-30T06:00:33.657Z,25.00
2019-03-30T06:03:01.978Z,21.60
2019-03-30T06:05:30.800Z,21.87
2019-03-30T06:07:59.005Z,21.40
2019-03-30T06:10:27.113Z,22.33
2019-03-30T06:12:55.503Z,22.30
2019-03-30T06:15:23.696Z,22.63
2019-03-30T06:17:51.942Z,21.40
2019-03-30T06:20:20.350Z,24.83
2019-03-30T06:22:51.369Z,24.27
2019-03-30T06:25:20.257Z,23.57
2019-03-30T06:27:49.649Z,22.40
2019-03-30T06:30:24.208Z,24.03
2019-03-30T06:32:52.545Z,20.17
2019-03-30T06:35:20.960Z,22.73
2019-03-30T06:37:51.292Z,24.73
2019-03-30T06:40:19.561Z,22.30
2019-03-30T06:42:47.833Z,23.40
2019-03-30T06:45:17.554Z,22.40
2019-03-30T06:47:45.826Z,22.13
2019-03-30T06:50:16.947Z,24.13
2019-03-30T06:52:56.867Z,23.53
2019-03-30T06:55:15.488Z,25.67
2019-03-30T06:57:43.679Z,23.07
2019-03-30T07:00:13.346Z,23.40
2019-03-30T07:02:42.364Z,23.33
2019-03-30T07:05:12.416Z,22.47
2019-03-30T07:07:46.510Z,22.23
2019-03-30T07:10:15.168Z,21.73
2019-03-30T07:12:45.411Z,21.10
2019-03-30T07:15:13.954Z,21.27
2019-03-30T07:17:47.038Z,20.73
2019-03-30T07:20:27.049Z,21.90
2019-03-30T07:22:56.128Z,21.93
2019-03-30T07:25:24.701Z,21.40
2019-03-30T07:27:53.372Z,23.60
2019-03-30T07:30:21.768Z,21.83
2019-03-30T07:32:50.011Z,23.10
2019-03-30T07:35:18.370Z,20.17
2019-03-30T07:37:47.046Z,19.00
2019-03-30T07:40:16.479Z,20.80
2019-03-30T07:42:44.705Z,20.40
2019-03-30T07:45:13.359Z,22.83
2019-03-30T07:47:41.718Z,19.40
2019-03-30T07:50:10.342Z,20.57
2019-03-30T07:52:38.600Z,21.40
2019-03-30T07:55:07.165Z,22.90
2019-03-30T07:57:35.454Z,22.13
2019-03-30T08:00:04.050Z,23.80
2019-03-30T08:02:32.308Z,23.60
2019-03-30T08:05:00.569Z,22.33
2019-03-30T08:07:29.825Z,20.97
2019-03-30T08:09:58.154Z,21.13
2019-03-30T08:12:26.431Z,22.27
2019-03-30T08:14:54.710Z,21.83
2019-03-30T08:17:24.417Z,20.63
2019-03-30T08:19:52.643Z,22.40
2019-03-30T08:22:20.976Z,20.33
2019-03-30T08:24:49.265Z,23.70
2019-03-30T08:27:17.661Z,24.73
2019-03-30T08:29:46.016Z,22.13
2019-03-30T08:32:14.268Z,25.43
2019-03-30T08:34:42.568Z,27.37
2019-03-30T08:37:11.068Z,23.70
2019-03-30T08:39:39.534Z,26.50
2019-03-30T08:42:08.249Z,23.07
2019-03-30T08:44:36.641Z,24.97
2019-03-30T08:47:05.011Z,23.67
2019-03-30T08:49:33.388Z,25.57
2019-03-30T08:52:01.734Z,26.73
2019-03-30T08:54:29.949Z,29.00
2019-03-30T08:56:58.487Z,26.80
2019-03-30T08:59:26.683Z,28.27
2019-03-30T09:01:56.088Z,29.73
2019-03-30T09:04:24.359Z,29.30
2019-03-30T09:06:55.518Z,30.77
2019-03-30T09:09:23.908Z,29.43
2019-03-30T09:11:52.261Z,33.10
2019-03-30T09:14:20.636Z,35.50
2019-03-30T09:16:49.697Z,33.13
2019-03-30T09:19:18.017Z,29.80
2019-03-30T09:21:46.484Z,32.93
2019-03-30T09:24:14.897Z,31.87
2019-03-30T09:26:43.389Z,33.10
2019-03-30T09:29:11.841Z,34.23
2019-03-30T09:31:40.299Z,34.37
2019-03-30T09:34:08.793Z,32.07
2019-03-30T09:36:37.053Z,34.07
2019-03-30T09:39:06.690Z,31.20
2019-03-30T09:41:34.920Z,33.87
2019-03-30T09:44:03.207Z,30.43
2019-03-30T09:46:33.944Z,30.03
2019-03-30T09:49:02.205Z,30.67
2019-03-30T09:51:30.577Z,29.20
2019-03-30T09:53:58.887Z,28.73
2019-03-30T09:56:27.492Z,26.03
2019-03-30T09:58:55.834Z,27.93
2019-03-30T10:01:24.153Z,25.87
2019-03-30T10:03:55.317Z,26.73
2019-03-30T10:06:34.271Z,26.57
2019-03-30T10:08:56.048Z,26.53
2019-03-30T10:11:24.304Z,25.93
2019-03-30T10:13:52.582Z,23.70
2019-03-30T10:16:21.082Z,24.47
2019-03-30T10:18:49.367Z,25.63
2019-03-30T10:21:17.658Z,25.07
2019-03-30T10:23:49.112Z,24.87
2019-03-30T10:26:17.382Z,23.67
2019-03-30T10:28:47.230Z,23.83
2019-03-30T10:31:15.641Z,24.97
2019-03-30T10:33:43.755Z,24.10
2019-03-30T10:36:12.199Z,24.20
2019-03-30T10:38:40.458Z,23.23
2019-03-30T10:41:08.783Z,23.63
2019-03-30T10:43:37.370Z,25.47
2019-03-30T10:46:05.771Z,23.63
2019-03-30T10:48:34.166Z,23.43
2019-03-30T10:51:02.365Z,23.80
2019-03-30T10:53:30.749Z,22.80
2019-03-30T10:56:00.084Z,26.37
2019-03-30T10:58:28.471Z,26.83
2019-03-30T11:00:57.028Z,23.77
2019-03-30T11:03:25.396Z,23.80
2019-03-30T11:05:53.840Z,23.40
2019-03-30T11:08:24.216Z,24.33
2019-03-30T11:10:52.492Z,24.00
2019-03-30T11:13:21.106Z,23.23
2019-03-30T11:15:50.590Z,23.67
2019-03-30T11:18:19.146Z,24.53
2019-03-30T11:20:47.514Z,22.30
2019-03-30T11:23:17.597Z,24.83
2019-03-30T11:25:46.030Z,23.27
2019-03-30T11:28:14.412Z,24.67
2019-03-30T11:30:42.736Z,27.07
2019-03-30T11:33:11.394Z,26.07
2019-03-30T11:35:39.791Z,25.13
2019-03-30T11:38:08.123Z,26.63
2019-03-30T11:40:38.326Z,26.57
2019-03-30T11:43:06.656Z,25.53
2019-03-30T11:45:34.902Z,26.67
2019-03-30T11:48:03.256Z,24.47
2019-03-30T11:50:31.442Z,26.13
2019-03-30T11:52:59.777Z,25.43
2019-03-30T11:55:28.240Z,28.63
2019-03-30T11:57:56.683Z,27.00
2019-03-30T12:00:25.107Z,26.70
2019-03-30T12:02:53.410Z,29.30
2019-03-30T12:05:21.871Z,27.07
2019-03-30T12:07:52.984Z,26.23
2019-03-30T12:10:23.611Z,25.33
2019-03-30T12:12:52.258Z,28.13
2019-03-30T12:15:21.734Z,29.93
2019-03-30T12:17:50.633Z,28.43
2019-03-30T12:20:18.882Z,26.90
2019-03-30T12:22:47.192Z,26.57
2019-03-30T12:25:15.449Z,27.50
2019-03-30T12:27:43.660Z,30.20
2019-03-30T12:30:12.223Z,27.43
2019-03-30T12:32:40.791Z,28.23
2019-03-30T12:35:09.235Z,25.40
2019-03-30T12:37:37.733Z,26.90
2019-03-30T12:40:07.262Z,24.73
2019-03-30T12:42:38.516Z,25.67
2019-03-30T12:45:07.013Z,25.07
2019-03-30T12:47:35.798Z,24.70
2019-03-30T12:50:06.863Z,25.63
2019-03-30T12:52:35.124Z,28.90
2019-03-30T12:55:03.498Z,25.20
2019-03-30T12:57:31.769Z,25.30
2019-03-30T13:00:00.663Z,27.07
2019-03-30T13:02:28.866Z,26.33
2019-03-30T13:04:57.306Z,27.53
2019-03-30T13:07:28.644Z,24.50
2019-03-30T13:09:56.961Z,24.57
2019-03-30T13:12:25.230Z,24.37
2019-03-30T13:14:53.422Z,26.57
2019-03-30T13:17:21.734Z,24.80
2019-03-30T13:19:50.075Z,24.40
2019-03-30T13:22:18.932Z,24.20
2019-03-30T13:24:47.196Z,23.90
2019-03-30T13:27:15.851Z,24.57
2019-03-30T13:29:44.385Z,23.37
2019-03-30T13:32:13.009Z,25.97
2019-03-30T13:34:41.374Z,23.13
2019-03-30T13:37:15.660Z,23.37
2019-03-30T13:39:44.772Z,23.27
2019-03-30T13:42:13.843Z,23.07
2019-03-30T13:44:42.384Z,23.80
2019-03-30T13:47:10.827Z,24.97
2019-03-30T13:49:39.107Z,24.13
2019-03-30T13:52:07.506Z,25.47
2019-03-30T13:54:41.519Z,24.60
2019-03-30T13:57:10.276Z,25.30
2019-03-30T13:59:38.668Z,25.50
2019-03-30T14:02:07.250Z,26.20
2019-03-30T14:04:35.946Z,27.17
2019-03-30T14:07:04.380Z,26.33
2019-03-30T14:09:35.473Z,25.77
2019-03-30T14:12:09.937Z,27.60
2019-03-30T14:14:38.738Z,24.83
2019-03-30T14:17:06.962Z,26.17
2019-03-30T14:19:35.380Z,24.73
2019-03-30T14:22:03.906Z,26.33
2019-03-30T14:24:33.497Z,26.80
2019-03-30T14:27:01.968Z,27.07
2019-03-30T14:29:30.368Z,24.40
2019-03-30T14:31:58.743Z,24.47
2019-03-30T14:34:27.116Z,24.50
2019-03-30T14:36:55.588Z,24.23
2019-03-30T14:39:24.693Z,24.50
2019-03-30T14:41:53.009Z,24.07
2019-03-30T14:44:22.086Z,23.90
2019-03-30T14:46:50.576Z,24.03
2019-03-30T14:49:18.973Z,22.57
2019-03-30T14:51:50.430Z,23.37
2019-03-30T14:54:18.646Z,23.53
2019-03-30T14:56:47.020Z,25.70
2019-03-30T14:59:15.648Z,25.40
2019-03-30T15:01:47.260Z,26.53
2019-03-30T15:04:16.414Z,26.17
2019-03-30T15:06:44.846Z,26.60
2019-03-30T15:09:16.357Z,29.80
2019-03-30T15:11:46.785Z,29.17
2019-03-30T15:14:16.963Z,27.80
2019-03-30T15:16:45.830Z,31.43
2019-03-30T15:19:14.280Z,33.60
2019-03-30T15:21:45.384Z,33.13
2019-03-30T15:24:13.832Z,35.33
2019-03-30T15:26:42.528Z,34.73
2019-03-30T15:29:11.270Z,35.87
2019-03-30T15:31:41.122Z,36.10
2019-03-30T15:34:09.703Z,37.63
2019-03-30T15:36:38.101Z,36.70
2019-03-30T15:39:07.672Z,38.17
2019-03-30T15:41:36.205Z,37.90
2019-03-30T15:44:04.736Z,40.63
2019-03-30T15:46:33.096Z,40.03
2019-03-30T15:49:01.809Z,37.23
2019-03-30T15:51:31.200Z,37.83
2019-03-30T15:53:59.600Z,38.13
2019-03-30T15:56:27.999Z,36.63
2019-03-30T15:58:56.266Z,37.83
2019-03-30T16:01:24.974Z,36.67
2019-03-30T16:03:55.504Z,40.40
2019-03-30T16:06:24.177Z,42.77
2019-03-30T16:08:52.790Z,37.77
2019-03-30T16:11:21.188Z,37.07
2019-03-30T16:13:49.723Z,41.80
2019-03-30T16:16:18.133Z,42.90
2019-03-30T16:18:46.959Z,56.27
2019-03-30T16:21:17.327Z,45.57
2019-03-30T16:23:47.699Z,44.53
2019-03-30T16:26:15.994Z,46.27
2019-03-30T16:28:44.485Z,46.47
2019-03-30T16:31:13.363Z,44.40
2019-03-30T16:33:41.688Z,46.90
2019-03-30T16:36:10.240Z,44.20
2019-03-30T16:38:40.308Z,48.03
2019-03-30T16:41:08.627Z,44.90
2019-03-30T16:43:37.130Z,45.87
2019-03-30T16:46:07.943Z,44.00
2019-03-30T16:48:36.438Z,45.57
2019-03-30T16:51:06.980Z,45.63
2019-03-30T16:53:36.796Z,45.47
2019-03-30T16:56:05.374Z,44.80
2019-03-30T16:58:35.153Z,44.87
2019-03-30T17:01:03.716Z,48.07
2019-03-30T17:03:32.395Z,49.87
2019-03-30T17:06:03.523Z,49.37
2019-03-30T17:08:32.227Z,49.20
2019-03-30T17:11:03.503Z,47.90
2019-03-30T17:13:33.146Z,49.10
2019-03-30T17:16:02.043Z,47.93
2019-03-30T17:18:33.234Z,48.70
2019-03-30T17:21:01.853Z,53.43
2019-03-30T17:23:30.391Z,52.60
2019-03-30T17:25:59.469Z,54.63
2019-03-30T17:28:38.453Z,53.73
2019-03-30T17:31:10.567Z,58.37
2019-03-30T17:33:40.723Z,55.33
2019-03-30T17:36:10.380Z,56.60
2019-03-30T17:38:41.231Z,59.77
2019-03-30T17:41:10.166Z,56.30
2019-03-30T17:43:39.430Z,56.17
2019-03-30T17:46:08.070Z,61.23
2019-03-30T17:48:37.038Z,62.33
2019-03-30T17:51:05.771Z,59.27
2019-03-30T17:53:34.447Z,57.60
2019-03-30T17:56:03.104Z,58.17
2019-03-30T17:58:32.792Z,54.73
2019-03-30T18:01:01.451Z,62.37
2019-03-30T18:03:30.108Z,65.77
2019-03-30T18:05:58.805Z,67.03
2019-03-30T18:08:27.350Z,60.53
2019-03-30T18:10:56.125Z,66.40
2019-03-30T18:13:26.512Z,67.83
2019-03-30T18:15:55.275Z,64.10
2019-03-30T18:18:34.126Z,65.60
2019-03-30T18:21:02.822Z,68.33
2019-03-30T18:23:31.265Z,66.90
2019-03-30T18:25:59.739Z,70.23
2019-03-30T18:28:29.401Z,69.63
2019-03-30T18:30:58.117Z,71.03
2019-03-30T18:33:26.468Z,70.80
2019-03-30T18:35:55.539Z,69.43
2019-03-30T18:38:24.432Z,69.07
2019-03-30T18:40:53.123Z,73.20
2019-03-30T18:43:21.603Z,78.57
2019-03-30T18:45:50.580Z,71.77
2019-03-30T18:48:19.196Z,73.70
2019-03-30T18:50:47.771Z,79.33
2019-03-30T18:53:16.764Z,78.27
2019-03-30T18:55:45.636Z,71.03
2019-03-30T18:58:14.200Z,77.47
2019-03-30T19:00:42.791Z,70.83
2019-03-30T19:03:13.706Z,67.60
2019-03-30T19:05:44.509Z,67.07
2019-03-30T19:08:13.037Z,75.47
2019-03-30T19:10:43.546Z,78.07
2019-03-30T19:13:12.099Z,79.73
2019-03-30T19:15:40.589Z,77.63
2019-03-30T19:18:09.106Z,78.20
2019-03-30T19:20:37.640Z,88.20
2019-03-30T19:23:06.300Z,79.70
2019-03-30T19:25:35.139Z,84.47
2019-03-30T19:28:04.261Z,88.20
2019-03-30T19:30:32.839Z,82.07
2019-03-30T19:33:01.343Z,89.67
2019-03-30T19:35:29.942Z,83.10
2019-03-30T19:37:58.629Z,93.07
2019-03-30T19:40:27.281Z,85.87
2019-03-30T19:42:56.080Z,90.40
2019-03-30T19:45:24.760Z,85.40
2019-03-30T19:47:53.465Z,90.90
2019-03-30T19:50:21.925Z,98.03
2019-03-30T19:52:50.798Z,92.93
2019-03-30T19:55:19.509Z,96.73
2019-03-30T19:57:48.019Z,101.40
2019-03-30T20:00:16.968Z,98.73
2019-03-30T20:02:45.577Z,110.43
2019-03-30T20:05:14.712Z,100.07
2019-03-30T20:07:46.719Z,106.80
2019-03-30T20:10:17.476Z,101.13
2019-03-30T20:12:45.948Z,113.23
2019-03-30T20:15:14.770Z,111.80
2019-03-30T20:17:43.251Z,115.17
2019-03-30T20:20:12.068Z,115.70
2019-03-30T20:22:40.816Z,117.40
2019-03-30T20:25:09.624Z,123.93
2019-03-30T20:27:40.656Z,118.27
2019-03-30T20:30:11.079Z,128.97
2019-03-30T20:32:42.959Z,129.33
2019-03-30T20:35:10.254Z,133.83
2019-03-30T20:37:39.043Z,133.33
2019-03-30T20:40:08.480Z,138.17
2019-03-30T20:42:37.031Z,129.70
2019-03-30T20:45:06.291Z,131.97
2019-03-30T20:47:35.617Z,130.87
2019-03-30T20:50:06.324Z,135.97
2019-03-30T20:52:34.955Z,142.57
2019-03-30T20:55:04.168Z,151.50
2019-03-30T20:57:32.760Z,151.53
2019-03-30T21:00:02.401Z,165.87
2019-03-30T21:02:32.199Z,166.13
2019-03-30T21:05:02.062Z,156.00
2019-03-30T21:07:30.755Z,149.17
2019-03-30T21:09:59.852Z,154.97
2019-03-30T21:12:31.954Z,164.47
2019-03-30T21:15:00.831Z,173.00
2019-03-30T21:17:30.430Z,167.97
2019-03-30T21:19:59.268Z,190.03
2019-03-30T21:22:32.157Z,168.70
2019-03-30T21:25:06.581Z,190.53
2019-03-30T21:27:35.113Z,165.73
2019-03-30T21:30:05.968Z,161.37
2019-03-30T21:32:36.042Z,170.83
2019-03-30T21:35:05.124Z,195.53
2019-03-30T21:37:35.402Z,167.83
2019-03-30T21:40:07.153Z,159.13
2019-03-30T21:42:37.656Z,169.47
2019-03-30T21:45:09.365Z,176.93
2019-03-30T21:47:41.044Z,170.97
2019-03-30T21:50:12.804Z,186.60
2019-03-30T21:52:44.328Z,184.83
2019-03-30T21:55:13.172Z,187.43
2019-03-30T21:57:41.612Z,177.50
2019-03-30T22:00:11.586Z,178.80
2019-03-30T22:02:41.325Z,189.03
2019-03-30T22:05:11.002Z,177.63
2019-03-30T22:07:39.717Z,186.27
2019-03-30T22:10:15.486Z,194.13
2019-03-30T22:12:42.226Z,199.77
2019-03-30T22:15:12.630Z,190.80
2019-03-30T22:17:43.307Z,200.73
2019-03-30T22:20:16.452Z,229.10
2019-03-30T22:22:42.377Z,211.70
2019-03-30T22:25:11.039Z,225.70
2019-03-30T22:27:40.577Z,235.97
2019-03-30T22:30:23.595Z,225.83
2019-03-30T22:32:41.509Z,238.07
2019-03-30T22:35:10.300Z,219.50
2019-03-30T22:37:38.869Z,212.53
2019-03-30T22:40:08.829Z,215.73
2019-03-30T22:42:38.505Z,225.60
2019-03-30T22:45:07.795Z,230.77
2019-03-30T22:47:36.392Z,213.50
2019-03-30T22:50:05.779Z,212.70
2019-03-30T22:52:34.584Z,219.80
2019-03-30T22:55:04.837Z,195.33
2019-03-30T22:57:33.444Z,218.97
2019-03-30T23:00:02.894Z,203.53
2019-03-30T23:02:31.534Z,232.87
2019-03-30T23:05:00.158Z,236.90
2019-03-30T23:07:29.162Z,224.03
2019-03-30T23:09:57.846Z,251.87
2019-03-30T23:12:27.770Z,222.10
2019-03-30T23:14:56.430Z,251.37
2019-03-30T23:17:25.029Z,264.57
2019-03-30T23:19:53.705Z,243.43
2019-03-30T23:22:22.208Z,262.17
2019-03-30T23:24:50.820Z,262.83
2019-03-30T23:27:19.816Z,197.50
2019-03-30T23:29:48.504Z,231.23
2019-03-30T23:32:18.060Z,184.37
2019-03-30T23:34:46.813Z,195.47
2019-03-30T23:37:15.569Z,187.97
2019-03-30T23:39:44.120Z,195.63
2019-03-30T23:42:13.097Z,203.93
2019-03-30T23:44:44.366Z,223.07
2019-03-30T23:47:12.970Z,202.43
2019-03-30T23:49:45.157Z,205.37
2019-03-30T23:52:14.205Z,212.33
2019-03-30T23:54:43.023Z,207.23
2019-03-30T23:57:11.783Z,214.07
2019-03-30T23:59:40.577Z,215.90
